Time;durP1;ratioP1;P1;durP2;ratioP2;P2;SDS_P1;SDS_P2;PMS_P1;PMS_P2;Temp;Humidity;BMP_temperature;BMP_pressure;BME280_temperature;BME280_humidity;BME280_pressure;Samples;Min_cycle;Max_cycle;Signal;HPM_P1;HPM_P2
2023/11/25 00:02:57;682152.00;2.27;1176.30;92913.00;0.31;161.34;;;;;7.20;1.00;;;;;;1788944;56;3586;-87
2023/11/25 00:15:30;620038.00;2.07;1068.83;0.00;0.00;0.62;;;;;6.00;1.00;;;;;;2267321;61;1349;-88
2023/11/25 00:17:59;633474.00;2.11;1092.05;0.00;0.00;0.62;;;;;5.90;1.00;;;;;;2267920;40;3621;-87
2023/11/25 00:20:26;780556.00;2.60;1347.23;0.00;0.00;0.62;;;;;5.80;1.00;;;;;;2267664;61;1675;-89
2023/11/25 00:22:54;922057.00;3.07;1594.89;43015.00;0.14;75.10;;;;;5.70;1.00;;;;;;2267958;61;1043;-89
2023/11/25 00:25:24;483780.00;1.61;833.90;0.00;0.00;0.62;;;;;5.50;1.00;;;;;;2267954;61;1364;-87
2023/11/25 00:30:19;750228.00;2.50;1294.45;0.00;0.00;0.62;;;;;5.60;1.00;;;;;;2269367;61;1370;-88
2023/11/25 00:32:46;760931.00;2.54;1313.07;0.00;0.00;0.62;;;;;5.70;1.00;;;;;;2268160;61;1138;-88
2023/11/25 00:35:15;650159.00;2.17;1120.91;0.00;0.00;0.62;;;;;5.70;1.00;;;;;;2266305;61;2380;-89
2023/11/25 00:40:12;611566.00;2.04;1054.19;0.00;0.00;0.62;;;;;5.90;1.00;;;;;;2273260;55;3687;-88
2023/11/25 00:42:39;463125.00;1.54;798.36;0.00;0.00;0.62;;;;;5.80;1.00;;;;;;2259909;61;1800;-87
2023/11/25 00:45:09;592912.00;1.98;1021.98;0.00;0.00;0.62;;;;;5.80;1.00;;;;;;2259782;61;1714;-89
2023/11/25 00:50:07;977134.00;3.26;1692.01;46265.00;0.15;80.73;;;;;5.80;1.00;;;;;;2269270;61;1428;-86
2023/11/25 00:52:35;494062.00;1.65;851.60;0.00;0.00;0.62;;;;;5.90;1.00;;;;;;2267997;61;2269;-87
2023/11/25 00:55:02;558375.00;1.86;962.40;29013.00;0.10;50.87;;;;;6.30;1.00;;;;;;2267967;61;1538;-87
2023/11/25 00:57:29;724822.00;2.42;1250.31;5401.00;0.02;9.98;;;;;6.40;1.00;;;;;;2267753;61;1703;-88
2023/11/25 00:59:56;558030.00;1.86;961.80;43459.00;0.14;75.87;;;;;6.50;1.00;;;;;;2268041;61;900;-87
2023/11/25 01:02:23;582622.00;1.94;1004.22;0.00;0.00;0.62;;;;;6.40;1.00;;;;;;2267867;61;1125;-88
2023/11/25 01:04:50;405586.00;1.35;699.41;0.00;0.00;0.62;;;;;6.30;1.00;;;;;;2267939;61;1343;-88
2023/11/25 01:07:19;886731.00;2.96;1532.83;7326.00;0.02;13.32;;;;;6.50;1.00;;;;;;2267766;61;1918;-86
2023/11/25 01:09:48;598424.00;1.99;1031.50;15612.00;0.05;27.67;;;;;6.50;1.00;;;;;;2267960;61;968;-87
2023/11/25 01:12:15;579109.00;1.93;998.16;0.00;0.00;0.62;;;;;6.50;1.00;;;;;;2267884;61;1142;-87
2023/11/25 01:14:43;606468.00;2.02;1045.39;0.00;0.00;0.62;;;;;6.60;1.00;;;;;;2267888;61;1282;-88
2023/11/25 01:17:10;722104.00;2.41;1245.59;28112.00;0.09;49.32;;;;;6.60;1.00;;;;;;2267876;61;1437;-88
2023/11/25 01:19:37;828109.00;2.76;1430.19;36704.00;0.12;64.19;;;;;6.60;1.00;;;;;;2269691;40;3636;-86
2023/11/25 01:22:04;521416.00;1.74;898.70;20984.00;0.07;36.97;;;;;6.70;1.00;;;;;;2263865;61;1086;-88
2023/11/25 01:24:31;827597.00;2.76;1429.30;0.00;0.00;0.62;;;;;6.50;1.00;;;;;;2263906;61;1262;-87
2023/11/25 01:27:00;889674.00;2.97;1537.99;19127.00;0.06;33.76;;;;;6.50;1.00;;;;;;2263832;61;1998;-87
2023/11/25 01:29:27;732470.00;2.44;1263.59;11798.00;0.04;21.06;;;;;6.30;1.00;;;;;;2263929;61;1007;-90
2023/11/25 01:31:54;769440.00;2.56;1327.88;83919.00;0.28;145.81;;;;;5.90;1.00;;;;;;2263938;61;1293;-88
2023/11/25 01:41:56;744408.00;2.48;1284.34;32418.00;0.11;56.77;;;;;4.90;1.00;;;;;;2270133;61;994;-88
2023/11/25 01:44:24;424255.00;1.41;731.51;29217.00;0.10;51.23;;;;;4.60;1.00;;;;;;2268319;61;1510;-87
2023/11/25 01:46:52;554737.00;1.85;956.13;0.00;0.00;0.62;;;;;4.50;1.00;;;;;;2264408;61;2008;-89
2023/11/25 01:49:21;500523.00;1.67;862.72;5751.00;0.02;10.59;;;;;4.50;1.00;;;;;;2264569;61;1055;-89
2023/11/25 01:51:49;316132.00;1.05;545.65;0.00;0.00;0.62;;;;;4.50;1.00;;;;;;2264391;61;1086;-89
2023/11/25 01:54:17;475116.00;1.58;818.99;2516.00;0.01;4.98;;;;;4.70;1.00;;;;;;2298478;56;3761;-87
2023/11/25 02:04:17;534341.00;1.78;920.97;27749.00;0.09;48.69;;;;;4.50;1.00;;;;;;2270008;61;1373;-87
2023/11/25 02:09:13;822999.00;2.74;1421.26;0.00;0.00;0.62;;;;;4.60;1.00;;;;;;1947084;40;3393;-89
2023/11/25 02:19:16;210119.00;0.70;363.34;0.00;0.00;0.62;;;;;4.30;1.00;;;;;;2275105;61;1327;-88
2023/11/25 02:35:09;376929.00;1.26;650.15;0.00;0.00;0.62;;;;;4.00;1.00;;;;;;818261;40;3692;-89
2023/11/25 02:42:35;275476.00;0.92;475.76;0.00;0.00;0.62;;;;;3.80;1.00;;;;;;1568302;40;3576;-89
2023/11/25 02:47:31;249058.00;0.83;430.33;0.00;0.00;0.62;;;;;4.00;1.00;;;;;;1961804;40;3438;-88
2023/11/25 02:49:58;87027.00;0.29;151.17;0.00;0.00;0.62;;;;;3.80;1.00;;;;;;2268559;55;3771;-87
2023/11/25 02:52:28;149557.00;0.50;259.04;0.00;0.00;0.62;;;;;3.90;1.00;;;;;;2268156;61;1716;-87
2023/11/25 02:54:54;138779.00;0.46;240.47;0.00;0.00;0.62;;;;;4.30;1.00;;;;;;2268357;61;1593;-89
2023/11/25 02:57:21;376662.00;1.26;649.69;59103.00;0.20;102.93;;;;;4.60;1.00;;;;;;2268321;61;1102;-86
2023/11/25 03:02:24;239895.00;0.80;414.57;0.00;0.00;0.62;;;;;4.40;1.00;;;;;;741253;56;3587;-86
2023/11/25 03:04:50;198563.00;0.66;343.45;24275.00;0.08;42.67;;;;;4.30;1.00;;;;;;2283726;40;3579;-87
2023/11/25 03:14:51;179515.00;0.60;310.65;9840.00;0.03;17.67;;;;;4.40;1.00;;;;;;2268783;61;1404;-86
2023/11/25 03:17:18;226089.00;0.75;390.82;0.00;0.00;0.62;;;;;4.60;1.00;;;;;;2264155;61;2398;-88
2023/11/25 03:19:46;79307.00;0.26;137.84;0.00;0.00;0.62;;;;;4.30;1.00;;;;;;2264252;61;1029;-89
2023/11/25 03:24:42;205590.00;0.69;355.55;0.00;0.00;0.62;;;;;4.90;1.00;;;;;;2272785;40;3470;-88
2023/11/25 03:34:41;216491.00;0.72;374.31;0.00;0.00;0.62;;;;;5.00;1.00;;;;;;2273090;61;1372;-86
2023/11/25 03:37:09;173189.00;0.58;299.76;0.00;0.00;0.62;;;;;5.00;1.00;;;;;;2270133;55;3686;-88
2023/11/25 03:47:05;206206.00;0.69;356.61;0.00;0.00;0.62;;;;;6.20;1.00;;;;;;2307278;40;3675;-87
2023/11/25 03:54:33;201650.00;0.67;348.76;0.00;0.00;0.62;;;;;6.70;1.00;;;;;;2282827;55;3646;-88
2023/11/25 03:59:28;140723.00;0.47;243.82;99659.00;0.33;172.98;;;;;6.30;1.00;;;;;;2269667;61;1388;-87
2023/11/25 04:01:55;117275280.00;390.92;65335132.00;96043.00;0.32;166.74;;;;;5.90;1.00;;;;;;2289739;40;3649;-88
2023/11/25 04:04:22;365025.00;1.22;629.69;0.00;0.00;0.62;;;;;5.50;1.00;;;;;;2264394;61;1615;-87
2023/11/25 04:06:49;422928.00;1.41;729.22;0.00;0.00;0.62;;;;;5.50;1.00;;;;;;2264469;61;976;-88
2023/11/25 04:09:16;340372.00;1.13;587.31;43715.00;0.15;76.32;;;;;5.90;1.00;;;;;;2264468;61;1931;-86
2023/11/25 04:11:44;53324.00;0.18;92.93;0.00;0.00;0.62;;;;;6.30;1.00;;;;;;2264352;61;1636;-86
2023/11/25 04:14:11;218628.00;0.73;377.98;0.00;0.00;0.62;;;;;6.30;1.00;;;;;;2280975;55;3731;-87
2023/11/25 04:16:38;103660.00;0.35;179.89;0.00;0.00;0.62;;;;;5.70;1.00;;;;;;2291185;56;3802;-88
2023/11/25 04:21:34;317398.00;1.06;547.83;0.00;0.00;0.62;;;;;6.10;1.00;;;;;;2272846;40;3494;-89
2023/11/25 04:26:30;118014.00;0.39;204.66;0.00;0.00;0.62;;;;;6.50;1.00;;;;;;2266163;61;1397;-87
2023/11/25 04:31:29;158320.00;0.53;274.14;0.00;0.00;0.62;;;;;6.20;1.00;;;;;;2273423;55;3659;-89
2023/11/25 04:33:57;156885.00;0.52;271.67;12376.00;0.04;22.07;;;;;6.40;1.00;;;;;;2264374;61;1121;-88
2023/11/25 04:36:24;172795.00;0.58;299.08;0.00;0.00;0.62;;;;;6.50;1.00;;;;;;2268728;40;3710;-88
2023/11/25 04:38:53;85732.00;0.29;148.94;0.00;0.00;0.62;;;;;6.60;1.00;;;;;;2268347;61;1086;-88
2023/11/25 04:41:22;61822.00;0.21;107.63;0.00;0.00;0.62;;;;;6.80;1.00;;;;;;2268320;61;1211;-86
2023/11/25 04:43:50;126230.00;0.42;218.83;0.00;0.00;0.62;;;;;6.50;1.00;;;;;;2268197;61;1747;-89
2023/11/25 04:46:16;211192.00;0.70;365.19;1281.00;0.00;2.84;;;;;6.60;1.00;;;;;;2268254;61;1601;-88
2023/11/25 04:48:45;405049.00;1.35;698.49;50702.00;0.17;88.40;;;;;6.70;1.00;;;;;;2268319;61;1919;-87
2023/11/25 04:51:12;15337.00;0.05;27.19;0.00;0.00;0.62;;;;;6.70;1.00;;;;;;2268314;61;2230;-88
2023/11/25 04:53:39;128723.00;0.43;223.13;12728.00;0.04;22.68;;;;;6.80;1.00;;;;;;2268354;61;1006;-87
2023/11/25 04:56:06;49591.00;0.17;86.48;0.00;0.00;0.62;;;;;6.90;1.00;;;;;;2273072;40;3654;-89
2023/11/25 05:01:02;162917.00;0.54;282.06;11542.00;0.04;20.62;;;;;6.90;1.00;;;;;;2270829;61;1089;-87
2023/11/25 05:03:29;217040.00;0.72;375.25;17597.00;0.06;31.11;;;;;6.80;1.00;;;;;;2268378;61;919;-87
2023/11/25 05:05:57;132090.00;0.44;228.93;0.00;0.00;0.62;;;;;6.80;1.00;;;;;;2265152;61;1254;-88
2023/11/25 05:08:24;171448.00;0.57;296.76;0.00;0.00;0.62;;;;;6.90;1.00;;;;;;2264180;61;2018;-88
2023/11/25 05:10:52;70921.00;0.24;123.35;0.00;0.00;0.62;;;;;7.20;1.00;;;;;;2264226;61;1018;-87
2023/11/25 05:13:19;40804.00;0.14;71.28;0.00;0.00;0.62;;;;;7.20;1.00;;;;;;2264222;61;1039;-87
2023/11/25 05:15:46;88896.00;0.30;154.40;0.00;0.00;0.62;;;;;7.20;1.00;;;;;;2264278;61;1350;-87
2023/11/25 05:18:13;123179.00;0.41;213.57;0.00;0.00;0.62;;;;;7.10;1.00;;;;;;2264230;61;1094;-86
2023/11/25 05:23:11;107216.00;0.36;186.03;0.00;0.00;0.62;;;;;6.80;1.00;;;;;;2269684;61;1409;-87
2023/11/25 05:25:38;121967.00;0.41;211.48;13902.00;0.05;24.71;;;;;6.50;1.00;;;;;;2265704;61;1585;-88
2023/11/25 05:28:05;27297.00;0.09;47.90;0.00;0.00;0.62;;;;;6.70;1.00;;;;;;2264094;61;1915;-88
2023/11/25 05:30:32;116376.00;0.39;201.83;0.00;0.00;0.62;;;;;6.70;1.00;;;;;;2264022;61;1668;-87
2023/11/25 05:32:59;211972.00;0.71;366.53;34718.00;0.12;60.75;;;;;6.70;1.00;;;;;;2264133;61;1730;-87
2023/11/25 05:35:25;32337.00;0.11;56.63;0.00;0.00;0.62;;;;;6.70;1.00;;;;;;2264011;61;1396;-87
2023/11/25 05:37:53;49301.00;0.16;85.98;0.00;0.00;0.62;;;;;6.90;1.00;;;;;;2264193;61;1601;-87
2023/11/25 05:40:21;57105.00;0.19;99.47;0.00;0.00;0.62;;;;;7.10;1.00;;;;;;2264182;61;1259;-87
2023/11/25 05:42:53;18091.00;0.06;31.96;0.00;0.00;0.62;;;;;7.00;1.00;;;;;;2264356;61;918;-88
2023/11/25 05:45:24;365030.00;1.22;629.69;164600.00;0.55;284.96;;;;;6.90;1.00;;;;;;2264167;61;2423;-88
2023/11/25 05:47:51;194869.00;0.65;337.09;88868.00;0.30;154.35;;;;;7.00;1.00;;;;;;2264309;61;2020;-87
2023/11/25 05:50:20;59314.00;0.20;103.29;0.00;0.00;0.62;;;;;6.60;1.00;;;;;;2264155;61;1079;-88
2023/11/25 05:52:47;171305.00;0.57;296.51;0.00;0.00;0.62;;;;;6.70;1.00;;;;;;2264110;61;1146;-88
2023/11/25 05:55:14;13599.00;0.05;24.18;0.00;0.00;0.62;;;;;6.90;1.00;;;;;;2264129;61;1274;-89
2023/11/25 05:57:44;0.00;0.00;0.62;0.00;0.00;0.62;;;;;7.00;1.00;;;;;;2264207;61;1046;-88
2023/11/25 06:00:12;71989.00;0.24;125.20;0.00;0.00;0.62;;;;;7.10;1.00;;;;;;2264215;61;1252;-88
2023/11/25 06:02:40;81345.00;0.27;141.36;0.00;0.00;0.62;;;;;7.00;1.00;;;;;;2264197;61;1048;-88
2023/11/25 06:05:07;242906.00;0.81;419.75;48240.00;0.16;84.14;;;;;6.80;1.00;;;;;;2264076;61;1369;-89
2023/11/25 06:07:34;83725.00;0.28;145.47;0.00;0.00;0.62;;;;;6.80;1.00;;;;;;2264157;61;1032;-88
2023/11/25 06:10:03;136991.00;0.46;237.38;0.00;0.00;0.62;;;;;6.70;1.00;;;;;;2264161;61;2002;-86
2023/11/25 06:12:31;164384.00;0.55;284.59;11572.00;0.04;20.67;;;;;6.80;1.00;;;;;;2264212;61;1335;-87
2023/11/25 06:15:00;0.00;0.00;0.62;0.00;0.00;0.62;;;;;6.60;1.00;;;;;;2264164;61;1381;-86
2023/11/25 06:17:27;50188.00;0.17;87.51;0.00;0.00;0.62;;;;;6.30;1.00;;;;;;2264079;61;985;-87
2023/11/25 06:19:54;63625.00;0.21;110.74;0.00;0.00;0.62;;;;;6.30;1.00;;;;;;2264125;61;1690;-88
2023/11/25 06:22:21;15579.00;0.05;27.61;0.00;0.00;0.62;;;;;6.30;1.00;;;;;;2263992;61;1607;-86
2023/11/25 06:24:48;91936.00;0.31;159.65;10457.00;0.03;18.74;;;;;6.20;1.00;;;;;;2264077;61;1402;-87
2023/11/25 06:27:16;111518.00;0.37;193.45;0.00;0.00;0.62;;;;;6.20;1.00;;;;;;2264115;61;1035;-85
2023/11/25 06:29:43;89996.00;0.30;156.30;0.00;0.00;0.62;;;;;6.30;1.00;;;;;;2264062;61;1913;-88
2023/11/25 06:32:11;112346.00;0.37;194.88;0.00;0.00;0.62;;;;;6.40;1.00;;;;;;2264113;61;1071;-87
2023/11/25 06:34:38;120067.00;0.40;208.20;51823.00;0.17;90.34;;;;;6.50;1.00;;;;;;2263974;61;1309;-87
2023/11/25 06:37:05;217058.00;0.72;375.28;18193.00;0.06;32.14;;;;;6.60;1.00;;;;;;2263973;61;1553;-87
2023/11/25 06:39:32;27142.00;0.09;47.64;0.00;0.00;0.62;;;;;6.50;1.00;;;;;;2264132;61;1110;-86
2023/11/25 06:42:00;186527.00;0.62;322.73;0.00;0.00;0.62;;;;;6.40;1.00;;;;;;2264020;61;1092;-88
2023/11/25 06:44:27;62004.00;0.21;107.94;0.00;0.00;0.62;;;;;6.30;1.00;;;;;;2264023;61;1308;-87
2023/11/25 06:46:54;158521.00;0.53;274.49;0.00;0.00;0.62;;;;;6.30;1.00;;;;;;2263976;61;2207;-87
2023/11/25 06:49:22;72661.00;0.24;126.36;0.00;0.00;0.62;;;;;6.20;1.00;;;;;;2264664;61;2396;-88
2023/11/25 06:51:49;42113.00;0.14;73.54;0.00;0.00;0.62;;;;;6.00;1.00;;;;;;2264663;61;1682;-87
2023/11/25 06:54:16;63352.00;0.21;110.27;0.00;0.00;0.62;;;;;6.30;1.00;;;;;;2264685;61;1265;-87
2023/11/25 06:56:43;82741.00;0.28;143.77;0.00;0.00;0.62;;;;;6.30;1.00;;;;;;2264638;61;1484;-87
2023/11/25 06:59:10;55280.00;0.18;96.32;0.00;0.00;0.62;;;;;6.40;1.00;;;;;;2277306;55;3774;-87
2023/11/25 07:01:37;55205.00;0.18;96.19;0.00;0.00;0.62;;;;;6.60;1.00;;;;;;2264622;61;1314;-90
2023/11/25 07:04:08;100290.00;0.33;174.07;0.00;0.00;0.62;;;;;6.30;1.00;;;;;;2310230;40;3778;-87
2023/11/25 07:06:36;146891.00;0.49;254.45;17466.00;0.06;30.88;;;;;6.30;1.00;;;;;;2274006;40;3636;-89
2023/11/25 07:09:04;157201.00;0.52;272.22;0.00;0.00;0.62;;;;;6.40;1.00;;;;;;2268607;61;1921;-88
2023/11/25 07:11:31;34568.00;0.12;60.49;0.00;0.00;0.62;;;;;6.40;1.00;;;;;;2268643;61;1076;-87
2023/11/25 07:13:58;169690.00;0.57;293.73;27679.00;0.09;48.57;;;;;6.40;1.00;;;;;;2268688;61;1709;-88
2023/11/25 07:16:24;312955.00;1.04;540.19;0.00;0.00;0.62;;;;;6.30;1.00;;;;;;2268503;61;2289;-87
2023/11/25 07:18:52;294185.00;0.98;507.92;36544.00;0.12;63.91;;;;;6.20;1.00;;;;;;2285003;40;3622;-86
2023/11/25 07:26:22;181251.00;0.60;313.64;0.00;0.00;0.62;;;;;6.00;1.00;;;;;;1969820;40;4268;-87
2023/11/25 07:28:49;179864.00;0.60;311.26;0.00;0.00;0.62;;;;;5.50;1.00;;;;;;2268283;61;2004;-88
2023/11/25 07:31:16;312621.00;1.04;539.61;18126.00;0.06;32.02;;;;;5.50;1.00;;;;;;2268472;61;1118;-88
2023/11/25 07:33:43;135504.00;0.45;234.82;0.00;0.00;0.62;;;;;5.70;1.00;;;;;;2268571;61;2035;-88
2023/11/25 07:36:11;98443.00;0.33;170.88;0.00;0.00;0.62;;;;;5.70;1.00;;;;;;2276434;40;3727;-89
2023/11/25 07:38:37;86923.00;0.29;150.99;0.00;0.00;0.62;;;;;5.80;1.00;;;;;;2268615;61;1011;-89
2023/11/25 07:41:05;210077.00;0.70;363.27;0.00;0.00;0.62;;;;;6.00;1.00;;;;;;2268707;61;917;-88
2023/11/25 07:43:33;8956.00;0.03;16.14;0.00;0.00;0.62;;;;;6.10;1.00;;;;;;2268501;61;1582;-87
2023/11/25 07:46:01;136442.00;0.45;236.44;0.00;0.00;0.62;;;;;6.30;1.00;;;;;;2268588;61;1405;-88
2023/11/25 07:48:27;179013.00;0.60;309.79;21244.00;0.07;37.42;;;;;6.40;1.00;;;;;;2268611;61;2001;-86
2023/11/25 07:50:54;159594.00;0.53;276.34;0.00;0.00;0.62;;;;;6.50;1.00;;;;;;2268602;61;1015;-88
2023/11/25 07:53:22;135972.00;0.45;235.63;0.00;0.00;0.62;;;;;6.60;1.00;;;;;;2268615;61;1069;-88
2023/11/25 07:55:50;318480.00;1.06;549.69;23987.00;0.08;42.17;;;;;6.70;1.00;;;;;;2268498;61;1378;-88
2023/11/25 07:58:18;14653.00;0.05;26.01;0.00;0.00;0.62;;;;;6.90;1.00;;;;;;2268369;61;1743;-89
2023/11/25 08:00:46;33907.00;0.11;59.35;0.00;0.00;0.62;;;;;7.00;1.00;;;;;;2268462;61;966;-87
2023/11/25 08:03:13;235994.00;0.79;407.86;21245.00;0.07;37.43;;;;;6.90;1.00;;;;;;2268518;61;1087;-88
2023/11/25 08:05:39;150331.00;0.50;260.38;16509.00;0.06;29.22;;;;;6.80;1.00;;;;;;2268447;61;1285;-87
2023/11/25 08:08:06;23651.00;0.08;41.59;0.00;0.00;0.62;;;;;6.90;1.00;;;;;;2268429;61;1558;-88
2023/11/25 08:10:34;168181.00;0.56;291.13;0.00;0.00;0.62;;;;;6.90;1.00;;;;;;2268413;61;2013;-89
2023/11/25 08:13:01;66593.00;0.22;115.87;0.00;0.00;0.62;;;;;6.90;1.00;;;;;;2268397;61;1516;-88
2023/11/25 08:15:28;91844.00;0.31;159.49;0.00;0.00;0.62;;;;;7.00;1.00;;;;;;2268443;61;1359;-88
2023/11/25 08:17:58;117128776.00;390.43;65090372.00;0.00;0.00;0.62;;;;;6.70;1.00;;;;;;2268481;61;1005;-86
2023/11/25 08:20:25;27816.00;0.09;48.80;0.00;0.00;0.62;;;;;6.70;1.00;;;;;;2268369;61;1190;-87
2023/11/25 08:22:52;54344.00;0.18;94.70;0.00;0.00;0.62;;;;;6.90;1.00;;;;;;2268465;61;914;-88
2023/11/25 08:25:18;297963.00;0.99;514.42;47329.00;0.16;82.57;;;;;6.60;1.00;;;;;;2268375;61;1370;-87
2023/11/25 08:27:45;71242.00;0.24;123.91;0.00;0.00;0.62;;;;;6.70;1.00;;;;;;2279553;40;3748;-87
2023/11/25 08:30:12;36559.00;0.12;63.93;0.00;0.00;0.62;;;;;6.90;1.00;;;;;;2264280;61;1916;-88
2023/11/25 08:32:40;5279.00;0.02;9.77;0.00;0.00;0.62;;;;;7.00;1.00;;;;;;2264305;61;1089;-88
2023/11/25 08:35:10;143739.00;0.48;249.02;57355.00;0.19;99.90;;;;;6.90;1.00;;;;;;2283115;55;3783;-88
2023/11/25 08:37:38;123108.00;0.41;213.44;0.00;0.00;0.62;;;;;6.90;1.00;;;;;;2268369;61;1534;-88
2023/11/25 08:40:07;228881.00;0.76;395.62;33788.00;0.11;59.14;;;;;7.00;1.00;;;;;;2268443;61;1235;-88
2023/11/25 08:42:33;211936.00;0.71;366.47;29140.00;0.10;51.09;;;;;7.10;1.00;;;;;;2268390;61;934;-87
2023/11/25 08:45:02;135387.00;0.45;234.62;0.00;0.00;0.62;;;;;7.00;1.00;;;;;;2268418;61;1390;-88
2023/11/25 08:47:29;135267.00;0.45;234.41;0.00;0.00;0.62;;;;;7.10;1.00;;;;;;2268382;61;1250;-88
2023/11/25 08:49:56;20516.00;0.07;36.16;0.00;0.00;0.62;;;;;7.30;1.00;;;;;;2268295;61;1926;-88
2023/11/25 08:52:27;136810.00;0.46;237.07;0.00;0.00;0.62;;;;;7.30;1.00;;;;;;2270728;40;3567;-89
2023/11/25 08:54:53;62721.00;0.21;109.18;0.00;0.00;0.62;;;;;7.30;1.00;;;;;;2268352;61;2376;-87
2023/11/25 08:57:21;30690.00;0.10;53.78;0.00;0.00;0.62;;;;;7.50;1.00;;;;;;2268363;61;980;-88
2023/11/25 08:59:48;112333.00;0.37;194.86;0.00;0.00;0.62;;;;;7.70;1.00;;;;;;2268389;61;1111;-90
2023/11/25 09:02:21;54761.00;0.18;95.42;0.00;0.00;0.62;;;;;7.70;1.00;;;;;;2268245;61;2350;-87
2023/11/25 09:04:49;23696.00;0.08;41.67;0.00;0.00;0.62;;;;;7.70;1.00;;;;;;2268343;61;1373;-87
2023/11/25 09:07:17;76280.00;0.25;132.61;0.00;0.00;0.62;;;;;7.80;1.00;;;;;;2268371;61;1006;-88
2023/11/25 09:09:49;146401.00;0.49;253.60;17314.00;0.06;30.62;;;;;7.70;1.00;;;;;;2268185;61;1923;-87
2023/11/25 09:12:17;27764.00;0.09;48.71;0.00;0.00;0.62;;;;;7.90;1.00;;;;;;2268252;61;1105;-87
2023/11/25 09:14:44;44493.00;0.15;77.66;0.00;0.00;0.62;;;;;7.90;1.00;;;;;;2268175;61;1375;-88
2023/11/25 09:17:15;16314.00;0.05;28.89;0.00;0.00;0.62;;;;;7.90;1.00;;;;;;2268221;61;1099;-88
2023/11/25 09:19:42;72425.00;0.24;125.95;0.00;0.00;0.62;;;;;8.00;1.00;;;;;;2268220;61;1562;-86
2023/11/25 09:22:11;0.00;0.00;0.62;0.00;0.00;0.62;;;;;7.70;1.00;;;;;;2268270;61;1064;-87
2023/11/25 09:24:38;171201.00;0.57;296.34;88131.00;0.29;153.08;;;;;7.80;1.00;;;;;;2268140;61;1837;-86
2023/11/25 09:27:07;320740.00;1.07;553.57;103731.00;0.35;180.01;;;;;7.80;1.00;;;;;;2268292;61;1011;-86
2023/11/25 09:29:35;382897.00;1.28;660.40;119306.00;0.40;206.89;;;;;7.70;1.00;;;;;;2268195;61;1927;-87
2023/11/25 09:32:02;244111.00;0.81;421.82;87700.00;0.29;152.34;;;;;7.80;1.00;;;;;;2268243;61;1110;-87
2023/11/25 09:34:28;383468.00;1.28;661.39;93662.00;0.31;162.63;;;;;7.60;1.00;;;;;;2268221;61;1304;-87
2023/11/25 09:36:55;292058.00;0.97;504.27;110839.00;0.37;192.28;;;;;7.60;1.00;;;;;;2268304;61;933;-87
2023/11/25 09:39:24;134783.00;0.45;233.58;0.00;0.00;0.62;;;;;7.50;1.00;;;;;;2268265;61;1084;-87
2023/11/25 09:41:51;183716.00;0.61;317.89;92280.00;0.31;160.24;;;;;7.90;1.00;;;;;;2268129;61;1260;-87
2023/11/25 09:46:50;44265.00;0.15;77.27;0.00;0.00;0.62;;;;;8.00;1.00;;;;;;2269999;61;1372;-88
2023/11/25 09:49:17;139020.00;0.46;240.88;0.00;0.00;0.62;;;;;8.10;1.00;;;;;;2270861;40;3543;-86
2023/11/25 09:51:47;0.00;0.00;0.62;0.00;0.00;0.62;;;;;8.40;1.00;;;;;;2268100;61;1039;-87
2023/11/25 09:54:21;96416.00;0.32;167.39;0.00;0.00;0.62;;;;;8.40;1.00;;;;;;2268232;61;1091;-88
2023/11/25 09:59:19;157925.00;0.53;273.46;0.00;0.00;0.62;;;;;8.60;1.00;;;;;;2270007;61;1258;-86
2023/11/25 10:02:02;150826.00;0.50;261.23;37432.00;0.12;65.45;;;;;8.10;1.00;;;;;;2268077;61;1095;-87
2023/11/25 10:04:33;739336.00;2.46;1275.52;185126.00;0.62;320.32;;;;;8.10;1.00;;;;;;2276148;55;3740;-86
2023/11/25 10:07:00;477917.00;1.59;823.81;128855.00;0.43;223.35;;;;;7.70;1.00;;;;;;2268149;61;1054;-87
2023/11/25 10:09:29;337389.00;1.12;582.19;91173.00;0.30;158.33;;;;;7.80;1.00;;;;;;2268123;61;1990;-87
2023/11/25 10:11:58;374687.00;1.25;646.29;89481.00;0.30;155.41;;;;;7.90;1.00;;;;;;2268116;61;1191;-87
2023/11/25 10:14:29;349468.00;1.16;602.95;92795.00;0.31;161.13;;;;;7.80;1.00;;;;;;2267931;61;1336;-87
2023/11/25 10:16:57;539180.00;1.80;929.31;117311.00;0.39;203.44;;;;;7.90;1.00;;;;;;2268076;61;1059;-88
2023/11/25 10:19:27;50387.00;0.17;87.86;0.00;0.00;0.62;;;;;8.20;1.00;;;;;;2272519;55;3770;-87
2023/11/25 10:21:56;151543.00;0.51;262.47;0.00;0.00;0.62;;;;;8.00;1.00;;;;;;2317211;40;3760;-88
2023/11/25 10:24:24;128543.00;0.43;222.82;13318.00;0.04;23.70;;;;;7.90;1.00;;;;;;2268662;61;1581;-88
2023/11/25 10:26:54;7771.00;0.03;14.09;0.00;0.00;0.62;;;;;7.90;1.00;;;;;;2273213;55;3749;-88
2023/11/25 10:29:21;155777.00;0.52;269.76;39442.00;0.13;68.92;;;;;8.20;1.00;;;;;;2273374;40;3594;-86
2023/11/25 10:31:55;340253.00;1.13;587.11;58965.00;0.20;102.69;;;;;8.40;1.00;;;;;;2275630;41;3635;-88
2023/11/25 10:34:26;209500.00;0.70;362.27;0.00;0.00;0.62;;;;;8.70;1.00;;;;;;2289085;40;3513;-87
2023/11/25 10:36:53;164200.00;0.55;284.28;56625.00;0.19;98.64;;;;;8.40;1.00;;;;;;2264738;61;1119;-86
2023/11/25 10:39:21;215819.00;0.72;373.15;13864.00;0.05;24.64;;;;;8.30;1.00;;;;;;2264769;61;1060;-87
2023/11/25 10:41:51;37934.00;0.13;66.31;0.00;0.00;0.62;;;;;8.40;1.00;;;;;;2264565;61;1132;-86
2023/11/25 10:49:43;227657.00;0.76;393.52;17454.00;0.06;30.86;;;;;8.40;1.00;;;;;;2271094;61;1892;-88
2023/11/25 10:52:10;478970.00;1.60;825.63;24032.00;0.08;42.25;;;;;8.50;1.00;;;;;;2265386;61;1336;-87
2023/11/25 10:54:38;442264.00;1.47;762.48;0.00;0.00;0.62;;;;;8.60;1.00;;;;;;2264069;61;1390;-87
2023/11/25 10:57:09;322302.00;1.07;556.25;61093.00;0.20;106.37;;;;;8.50;1.00;;;;;;2260432;61;983;-87
2023/11/25 10:59:39;134199.00;0.45;232.57;0.00;0.00;0.62;;;;;8.40;1.00;;;;;;2260717;61;989;-86
2023/11/25 11:02:15;67308.00;0.22;117.11;0.00;0.00;0.62;;;;;8.40;1.00;;;;;;2260577;61;1072;-86
2023/11/25 11:04:49;158744.00;0.53;274.88;5278.00;0.02;9.77;;;;;8.30;1.00;;;;;;2260337;61;1388;-87
2023/11/25 11:07:19;298930.00;1.00;516.08;0.00;0.00;0.62;;;;;8.50;1.00;;;;;;2260458;61;1008;-87
2023/11/25 11:09:50;492489.00;1.64;848.89;50244.00;0.17;87.61;;;;;8.40;1.00;;;;;;2260647;61;1917;-87
2023/11/25 11:12:27;307678.00;1.03;531.12;0.00;0.00;0.62;;;;;8.10;1.00;;;;;;2260526;61;1126;-87
2023/11/25 11:15:02;167557.00;0.56;290.06;0.00;0.00;0.62;;;;;8.40;1.00;;;;;;2260564;61;1352;-86
2023/11/25 11:17:38;133191.00;0.44;230.83;0.00;0.00;0.62;;;;;8.30;1.00;;;;;;2260518;61;1131;-87
2023/11/25 11:20:12;177093.00;0.59;306.48;14286.00;0.05;25.37;;;;;8.40;1.00;;;;;;2260583;61;1115;-86
2023/11/25 11:22:42;423793.00;1.41;730.71;121220.00;0.40;210.19;;;;;8.20;1.00;;;;;;2260533;61;1075;-86
2023/11/25 11:25:16;354894.00;1.18;612.27;93880.00;0.31;163.01;;;;;8.10;1.00;;;;;;2260530;61;1359;-88
2023/11/25 11:27:55;394340.00;1.31;680.08;113725.00;0.38;197.26;;;;;8.40;1.00;;;;;;2260551;61;1130;-87
2023/11/25 11:30:32;218246.00;0.73;377.33;94234.00;0.31;163.62;;;;;8.70;1.00;;;;;;2260454;61;1994;-87
2023/11/25 11:33:00;351778.00;1.17;606.92;105933.00;0.35;183.81;;;;;8.40;1.00;;;;;;2260277;61;1131;-86
2023/11/25 11:35:37;89442.00;0.30;155.34;0.00;0.00;0.62;;;;;8.60;1.00;;;;;;2260414;61;1285;-88
2023/11/25 11:38:23;53781.00;0.18;93.72;0.00;0.00;0.62;;;;;8.60;1.00;;;;;;2260399;61;1123;-87
2023/11/25 11:40:53;427978.00;1.43;737.91;107179.00;0.36;185.96;;;;;8.60;1.00;;;;;;2260460;61;1103;-87
2023/11/25 11:43:20;348706.00;1.16;601.64;93435.00;0.31;162.24;;;;;8.60;1.00;;;;;;2260515;61;976;-86
2023/11/25 11:45:48;422382.00;1.41;728.29;104605.00;0.35;181.52;;;;;8.60;1.00;;;;;;2260460;61;1694;-88
2023/11/25 11:48:15;284877.00;0.95;491.92;95827.00;0.32;166.37;;;;;8.50;1.00;;;;;;2260435;61;1049;-86
2023/11/25 11:50:49;364971.00;1.22;629.59;130831.00;0.44;226.76;;;;;8.30;1.00;;;;;;2260427;61;1939;-87
2023/11/25 11:53:16;354995.00;1.18;612.45;85274.00;0.28;148.15;;;;;8.20;1.00;;;;;;2260432;61;1744;-87
2023/11/25 11:55:49;301014.00;1.00;519.66;101982.00;0.34;176.99;;;;;8.20;1.00;;;;;;2260371;61;1671;-87
2023/11/25 11:58:17;172726.00;0.58;298.96;0.00;0.00;0.62;;;;;8.10;1.00;;;;;;2260331;61;1134;-86
2023/11/25 12:00:48;9025.00;0.03;16.26;0.00;0.00;0.62;;;;;8.00;1.00;;;;;;2260252;61;1002;-87
2023/11/25 12:03:17;297278.00;0.99;513.24;34851.00;0.12;60.98;;;;;8.20;1.00;;;;;;2260482;61;1083;-87
2023/11/25 12:05:47;149855.00;0.50;259.56;0.00;0.00;0.62;;;;;8.60;1.00;;;;;;2260316;61;1349;-88
2023/11/25 12:08:14;340032.00;1.13;586.73;36881.00;0.12;64.49;;;;;8.40;1.00;;;;;;2260430;61;1014;-88